sensor_id;sensor_type;location;lat;lon;timestamp;pressure;altitude;pressure_sealevel;temperature;humidity
9335;BME280;4706;41.844;26.082;2023-06-04T00:01:58;100854.50;;;22.79;71.15
9335;BME280;4706;41.844;26.082;2023-06-04T00:04:25;100847.31;;;22.82;71.41
9335;BME280;4706;41.844;26.082;2023-06-04T00:06:51;100850.09;;;22.82;71.34
9335;BME280;4706;41.844;26.082;2023-06-04T00:09:16;100854.06;;;22.77;70.92
9335;BME280;4706;41.844;26.082;2023-06-04T00:11:42;100848.03;;;22.75;71.73
9335;BME280;4706;41.844;26.082;2023-06-04T00:14:07;100848.84;;;22.76;71.14
9335;BME280;4706;41.844;26.082;2023-06-04T00:16:33;100847.63;;;22.77;71.46
9335;BME280;4706;41.844;26.082;2023-06-04T00:19:01;100841.13;;;22.69;70.60
9335;BME280;4706;41.844;26.082;2023-06-04T00:21:27;100846.03;;;22.76;70.29
9335;BME280;4706;41.844;26.082;2023-06-04T00:23:52;100844.28;;;22.68;70.22
9335;BME280;4706;41.844;26.082;2023-06-04T00:26:18;100833.78;;;22.61;69.37
9335;BME280;4706;41.844;26.082;2023-06-04T00:28:43;100851.47;;;22.65;69.69
9335;BME280;4706;41.844;26.082;2023-06-04T00:31:09;100849.03;;;22.64;70.09
9335;BME280;4706;41.844;26.082;2023-06-04T00:33:35;100854.56;;;22.60;70.82
9335;BME280;4706;41.844;26.082;2023-06-04T00:36:01;100851.13;;;22.70;71.28
9335;BME280;4706;41.844;26.082;2023-06-04T00:38:27;100840.81;;;22.51;71.28
9335;BME280;4706;41.844;26.082;2023-06-04T00:40:52;100854.28;;;22.65;70.52
9335;BME280;4706;41.844;26.082;2023-06-04T00:43:18;100854.06;;;22.77;70.22
9335;BME280;4706;41.844;26.082;2023-06-04T00:45:44;100852.97;;;22.59;70.68
9335;BME280;4706;41.844;26.082;2023-06-04T00:48:10;100861.19;;;22.48;71.12
9335;BME280;4706;41.844;26.082;2023-06-04T00:50:36;100865.19;;;22.47;70.69
9335;BME280;4706;41.844;26.082;2023-06-04T00:53:04;100861.34;;;22.33;72.11
9335;BME280;4706;41.844;26.082;2023-06-04T00:55:30;100863.81;;;22.38;72.46
9335;BME280;4706;41.844;26.082;2023-06-04T00:57:57;100853.91;;;22.21;72.12
9335;BME280;4706;41.844;26.082;2023-06-04T01:00:22;100868.72;;;22.21;72.60
9335;BME280;4706;41.844;26.082;2023-06-04T01:02:49;100865.75;;;22.34;73.17
9335;BME280;4706;41.844;26.082;2023-06-04T01:07:45;100863.25;;;22.28;72.50
9335;BME280;4706;41.844;26.082;2023-06-04T01:10:14;100863.31;;;22.32;71.92
9335;BME280;4706;41.844;26.082;2023-06-04T01:12:41;100868.41;;;21.84;72.87
9335;BME280;4706;41.844;26.082;2023-06-04T01:15:07;100853.28;;;21.89;72.97
9335;BME280;4706;41.844;26.082;2023-06-04T01:17:39;100862.38;;;21.82;73.36
9335;BME280;4706;41.844;26.082;2023-06-04T01:20:27;100885.59;;;21.63;74.24
9335;BME280;4706;41.844;26.082;2023-06-04T01:23:40;100869.25;;;21.46;76.44
9335;BME280;4706;41.844;26.082;2023-06-04T01:26:11;100881.63;;;21.64;75.44
9335;BME280;4706;41.844;26.082;2023-06-04T01:28:37;100874.09;;;21.68;76.26
9335;BME280;4706;41.844;26.082;2023-06-04T01:31:04;100876.97;;;21.72;76.23
9335;BME280;4706;41.844;26.082;2023-06-04T01:33:33;100877.28;;;21.67;76.22
9335;BME280;4706;41.844;26.082;2023-06-04T01:35:58;100878.38;;;21.81;75.74
9335;BME280;4706;41.844;26.082;2023-06-04T01:38:24;100874.59;;;21.93;75.41
9335;BME280;4706;41.844;26.082;2023-06-04T01:40:49;100870.81;;;22.05;74.06
9335;BME280;4706;41.844;26.082;2023-06-04T01:43:16;100877.53;;;22.20;74.11
9335;BME280;4706;41.844;26.082;2023-06-04T01:45:41;100876.91;;;22.11;74.40
9335;BME280;4706;41.844;26.082;2023-06-04T01:48:07;100877.22;;;22.05;74.21
9335;BME280;4706;41.844;26.082;2023-06-04T01:50:33;100876.34;;;22.01;73.69
9335;BME280;4706;41.844;26.082;2023-06-04T01:52:59;100865.31;;;21.89;73.13
9335;BME280;4706;41.844;26.082;2023-06-04T01:55:24;100874.19;;;21.72;77.79
9335;BME280;4706;41.844;26.082;2023-06-04T01:57:51;100865.69;;;21.88;76.49
9335;BME280;4706;41.844;26.082;2023-06-04T02:00:17;100874.22;;;21.95;76.59
9335;BME280;4706;41.844;26.082;2023-06-04T02:02:46;100881.63;;;21.64;78.17
9335;BME280;4706;41.844;26.082;2023-06-04T02:05:13;100881.97;;;21.43;79.83
9335;BME280;4706;41.844;26.082;2023-06-04T02:07:40;100885.06;;;21.57;78.74
9335;BME280;4706;41.844;26.082;2023-06-04T02:10:09;100889.41;;;21.55;78.14
9335;BME280;4706;41.844;26.082;2023-06-04T02:12:40;100895.69;;;21.32;79.14
9335;BME280;4706;41.844;26.082;2023-06-04T02:15:07;100900.81;;;21.11;79.64
9335;BME280;4706;41.844;26.082;2023-06-04T02:17:33;100904.91;;;20.98;81.48
9335;BME280;4706;41.844;26.082;2023-06-04T02:20:03;100905.09;;;20.89;81.73
9335;BME280;4706;41.844;26.082;2023-06-04T02:22:28;100909.88;;;20.89;83.16
9335;BME280;4706;41.844;26.082;2023-06-04T02:24:54;100902.94;;;20.67;85.31
9335;BME280;4706;41.844;26.082;2023-06-04T02:27:19;100913.03;;;20.87;85.41
9335;BME280;4706;41.844;26.082;2023-06-04T02:29:45;100899.22;;;21.10;83.90
9335;BME280;4706;41.844;26.082;2023-06-04T02:32:11;100923.44;;;21.22;83.42
9335;BME280;4706;41.844;26.082;2023-06-04T02:34:37;100904.81;;;21.10;82.97
9335;BME280;4706;41.844;26.082;2023-06-04T02:37:03;100921.25;;;20.96;83.27
9335;BME280;4706;41.844;26.082;2023-06-04T02:39:28;100924.75;;;20.93;83.02
9335;BME280;4706;41.844;26.082;2023-06-04T02:41:54;100929.63;;;20.96;82.38
9335;BME280;4706;41.844;26.082;2023-06-04T02:44:20;100937.94;;;20.92;82.16
9335;BME280;4706;41.844;26.082;2023-06-04T02:46:46;100928.38;;;20.93;80.95
9335;BME280;4706;41.844;26.082;2023-06-04T02:49:12;100940.53;;;21.01;80.48
9335;BME280;4706;41.844;26.082;2023-06-04T02:51:42;100933.88;;;20.90;80.50
9335;BME280;4706;41.844;26.082;2023-06-04T02:54:07;100943.16;;;20.94;79.98
9335;BME280;4706;41.844;26.082;2023-06-04T02:56:34;100939.28;;;20.82;80.02
9335;BME280;4706;41.844;26.082;2023-06-04T02:59:00;100943.06;;;20.74;80.87
9335;BME280;4706;41.844;26.082;2023-06-04T03:01:27;100947.03;;;20.89;80.80
9335;BME280;4706;41.844;26.082;2023-06-04T03:03:53;100946.59;;;21.03;79.78
9335;BME280;4706;41.844;26.082;2023-06-04T03:06:21;100945.03;;;21.21;79.61
9335;BME280;4706;41.844;26.082;2023-06-04T03:08:48;100929.59;;;21.12;79.77
9335;BME280;4706;41.844;26.082;2023-06-04T03:11:14;100945.66;;;21.15;79.82
9335;BME280;4706;41.844;26.082;2023-06-04T03:13:40;100942.41;;;21.13;80.20
9335;BME280;4706;41.844;26.082;2023-06-04T03:16:05;100938.75;;;21.28;80.03
9335;BME280;4706;41.844;26.082;2023-06-04T03:18:39;100930.28;;;21.24;79.79
9335;BME280;4706;41.844;26.082;2023-06-04T03:21:05;100946.06;;;21.48;80.18
9335;BME280;4706;41.844;26.082;2023-06-04T03:23:32;100942.53;;;21.51;80.09
9335;BME280;4706;41.844;26.082;2023-06-04T03:25:57;100944.66;;;21.58;80.22
9335;BME280;4706;41.844;26.082;2023-06-04T03:28:23;100946.31;;;21.59;79.88
9335;BME280;4706;41.844;26.082;2023-06-04T03:30:48;100951.38;;;21.73;80.53
9335;BME280;4706;41.844;26.082;2023-06-04T03:33:14;100917.69;;;21.50;80.80
9335;BME280;4706;41.844;26.082;2023-06-04T03:35:42;100949.69;;;21.68;81.13
9335;BME280;4706;41.844;26.082;2023-06-04T03:38:08;100948.97;;;21.71;82.06
9335;BME280;4706;41.844;26.082;2023-06-04T03:40:33;100940.84;;;21.66;83.03
9335;BME280;4706;41.844;26.082;2023-06-04T03:42:59;100964.16;;;21.70;83.13
9335;BME280;4706;41.844;26.082;2023-06-04T03:45:26;100966.56;;;21.72;82.93
9335;BME280;4706;41.844;26.082;2023-06-04T03:47:51;100965.75;;;21.52;84.10
9335;BME280;4706;41.844;26.082;2023-06-04T03:50:20;100966.72;;;21.60;82.99
9335;BME280;4706;41.844;26.082;2023-06-04T03:52:47;100970.22;;;21.56;83.82
9335;BME280;4706;41.844;26.082;2023-06-04T03:55:13;100971.84;;;21.57;83.66
9335;BME280;4706;41.844;26.082;2023-06-04T03:57:38;100979.13;;;21.62;83.62
9335;BME280;4706;41.844;26.082;2023-06-04T04:00:06;100973.06;;;21.76;82.53
9335;BME280;4706;41.844;26.082;2023-06-04T04:02:31;100971.44;;;21.75;82.05
9335;BME280;4706;41.844;26.082;2023-06-04T04:04:57;100974.31;;;21.78;81.91
9335;BME280;4706;41.844;26.082;2023-06-04T04:07:23;100980.34;;;21.80;82.26
9335;BME280;4706;41.844;26.082;2023-06-04T04:09:50;100987.28;;;21.87;81.02
9335;BME280;4706;41.844;26.082;2023-06-04T04:12:16;100984.47;;;21.87;81.08
9335;BME280;4706;41.844;26.082;2023-06-04T04:14:42;100984.47;;;21.87;80.78
9335;BME280;4706;41.844;26.082;2023-06-04T04:17:07;100981.53;;;21.79;81.04
9335;BME280;4706;41.844;26.082;2023-06-04T04:19:33;100987.72;;;21.89;80.55
9335;BME280;4706;41.844;26.082;2023-06-04T04:21:58;100986.41;;;21.82;80.78
9335;BME280;4706;41.844;26.082;2023-06-04T04:24:27;100997.38;;;21.91;80.92
9335;BME280;4706;41.844;26.082;2023-06-04T04:26:54;100989.50;;;21.97;80.37
9335;BME280;4706;41.844;26.082;2023-06-04T04:29:21;100981.19;;;22.00;79.74
9335;BME280;4706;41.844;26.082;2023-06-04T04:31:58;100989.59;;;22.00;80.19
9335;BME280;4706;41.844;26.082;2023-06-04T04:34:26;100986.72;;;21.97;80.02
9335;BME280;4706;41.844;26.082;2023-06-04T04:36:52;101001.22;;;22.02;80.06
9335;BME280;4706;41.844;26.082;2023-06-04T04:39:22;100997.81;;;22.13;80.43
9335;BME280;4706;41.844;26.082;2023-06-04T04:41:49;100986.34;;;22.18;79.88
9335;BME280;4706;41.844;26.082;2023-06-04T04:44:15;100990.22;;;22.13;80.72
9335;BME280;4706;41.844;26.082;2023-06-04T04:46:41;100991.22;;;22.21;80.24
9335;BME280;4706;41.844;26.082;2023-06-04T04:49:06;100996.31;;;22.35;79.78
9335;BME280;4706;41.844;26.082;2023-06-04T04:51:31;100999.09;;;22.35;79.89
9335;BME280;4706;41.844;26.082;2023-06-04T04:53:58;101005.41;;;22.51;79.02
9335;BME280;4706;41.844;26.082;2023-06-04T04:56:26;101011.34;;;22.69;79.33
9335;BME280;4706;41.844;26.082;2023-06-04T04:58:52;100997.78;;;22.94;78.58
9335;BME280;4706;41.844;26.082;2023-06-04T05:01:18;101000.41;;;23.06;77.45
9335;BME280;4706;41.844;26.082;2023-06-04T05:03:44;101005.00;;;23.18;77.37
9335;BME280;4706;41.844;26.082;2023-06-04T05:06:10;101019.34;;;23.13;76.83
9335;BME280;4706;41.844;26.082;2023-06-04T05:08:35;101007.38;;;23.16;76.18
9335;BME280;4706;41.844;26.082;2023-06-04T05:11:01;101018.66;;;23.19;75.79
9335;BME280;4706;41.844;26.082;2023-06-04T05:13:26;101019.47;;;23.20;76.52
9335;BME280;4706;41.844;26.082;2023-06-04T05:15:52;101022.22;;;23.16;76.36
9335;BME280;4706;41.844;26.082;2023-06-04T05:18:18;101014.59;;;23.17;76.11
9335;BME280;4706;41.844;26.082;2023-06-04T05:20:46;101009.25;;;23.08;75.70
9335;BME280;4706;41.844;26.082;2023-06-04T05:23:12;101017.41;;;23.17;76.39
9335;BME280;4706;41.844;26.082;2023-06-04T05:25:38;101017.09;;;23.22;76.58
9335;BME280;4706;41.844;26.082;2023-06-04T05:28:04;101022.03;;;23.29;76.41
9335;BME280;4706;41.844;26.082;2023-06-04T05:30:32;100984.63;;;23.21;76.98
9335;BME280;4706;41.844;26.082;2023-06-04T05:32:59;101025.16;;;23.50;76.12
9335;BME280;4706;41.844;26.082;2023-06-04T05:35:24;101027.81;;;23.66;75.72
9335;BME280;4706;41.844;26.082;2023-06-04T05:37:50;101035.94;;;23.71;75.13
9335;BME280;4706;41.844;26.082;2023-06-04T05:40:22;101040.91;;;23.81;75.10
9335;BME280;4706;41.844;26.082;2023-06-04T05:42:48;101045.53;;;23.96;74.79
9335;BME280;4706;41.844;26.082;2023-06-04T05:45:14;101045.69;;;24.11;72.62
9335;BME280;4706;41.844;26.082;2023-06-04T05:47:39;101039.69;;;24.12;72.30
9335;BME280;4706;41.844;26.082;2023-06-04T05:50:05;101046.31;;;24.27;72.29
9335;BME280;4706;41.844;26.082;2023-06-04T05:52:32;101054.88;;;24.38;71.77
9335;BME280;4706;41.844;26.082;2023-06-04T05:54:57;101053.84;;;24.50;70.97
9335;BME280;4706;41.844;26.082;2023-06-04T05:57:23;101052.00;;;24.64;70.12
9335;BME280;4706;41.844;26.082;2023-06-04T05:59:48;101052.91;;;24.76;69.71
9335;BME280;4706;41.844;26.082;2023-06-04T06:02:14;101056.50;;;24.73;69.92
9335;BME280;4706;41.844;26.082;2023-06-04T06:04:40;101054.28;;;24.55;70.64
9335;BME280;4706;41.844;26.082;2023-06-04T06:07:05;101063.25;;;24.64;70.92
9335;BME280;4706;41.844;26.082;2023-06-04T06:09:31;101066.91;;;24.68;70.56
9335;BME280;4706;41.844;26.082;2023-06-04T06:11:56;101074.50;;;24.64;71.27
9335;BME280;4706;41.844;26.082;2023-06-04T06:14:23;101063.97;;;24.58;70.73
9335;BME280;4706;41.844;26.082;2023-06-04T06:16:49;101073.28;;;24.65;70.93
9335;BME280;4706;41.844;26.082;2023-06-04T06:19:15;101080.19;;;24.38;71.76
9335;BME280;4706;41.844;26.082;2023-06-04T06:21:40;101083.00;;;24.38;71.93
9335;BME280;4706;41.844;26.082;2023-06-04T06:24:06;101088.88;;;24.29;72.00
9335;BME280;4706;41.844;26.082;2023-06-04T06:26:31;101090.47;;;24.27;71.65
9335;BME280;4706;41.844;26.082;2023-06-04T06:28:57;101081.47;;;24.14;72.58
9335;BME280;4706;41.844;26.082;2023-06-04T06:31:22;101084.72;;;24.16;72.17
9335;BME280;4706;41.844;26.082;2023-06-04T06:33:48;101085.91;;;24.15;72.55
9335;BME280;4706;41.844;26.082;2023-06-04T06:36:13;101098.56;;;24.32;72.84
9335;BME280;4706;41.844;26.082;2023-06-04T06:38:39;101095.41;;;24.37;72.02
9335;BME280;4706;41.844;26.082;2023-06-04T06:41:05;101094.94;;;24.31;72.08
9335;BME280;4706;41.844;26.082;2023-06-04T06:43:31;101099.28;;;24.25;71.99
9335;BME280;4706;41.844;26.082;2023-06-04T06:45:57;101097.09;;;24.11;72.45
9335;BME280;4706;41.844;26.082;2023-06-04T06:48:23;101099.19;;;24.18;72.13
9335;BME280;4706;41.844;26.082;2023-06-04T06:50:48;101097.09;;;24.11;71.10
9335;BME280;4706;41.844;26.082;2023-06-04T06:53:14;101105.72;;;24.26;71.06
9335;BME280;4706;41.844;26.082;2023-06-04T06:55:39;101104.81;;;24.18;71.90
9335;BME280;4706;41.844;26.082;2023-06-04T06:58:05;101103.78;;;24.03;71.90
9335;BME280;4706;41.844;26.082;2023-06-04T07:00:31;101111.41;;;24.03;71.98
9335;BME280;4706;41.844;26.082;2023-06-04T07:02:56;101119.75;;;23.95;72.19
9335;BME280;4706;41.844;26.082;2023-06-04T07:05:22;101116.22;;;24.02;69.48
9335;BME280;4706;41.844;26.082;2023-06-04T07:07:47;101121.75;;;23.95;69.26
9335;BME280;4706;41.844;26.082;2023-06-04T07:10:13;101117.59;;;23.85;69.86
9335;BME280;4706;41.844;26.082;2023-06-04T07:12:39;101125.41;;;23.99;70.13
9335;BME280;4706;41.844;26.082;2023-06-04T07:15:06;101129.09;;;24.03;70.42
9335;BME280;4706;41.844;26.082;2023-06-04T07:17:31;101118.22;;;24.02;71.43
9335;BME280;4706;41.844;26.082;2023-06-04T07:19:57;101121.53;;;24.07;71.58
9335;BME280;4706;41.844;26.082;2023-06-04T07:22:23;101139.50;;;24.29;71.74
9335;BME280;4706;41.844;26.082;2023-06-04T07:24:48;101138.91;;;24.43;71.26
9335;BME280;4706;41.844;26.082;2023-06-04T07:27:14;101146.50;;;24.39;71.98
9335;BME280;4706;41.844;26.082;2023-06-04T07:29:42;101145.34;;;24.43;73.22
9335;BME280;4706;41.844;26.082;2023-06-04T07:32:08;101141.88;;;24.27;74.15
9335;BME280;4706;41.844;26.082;2023-06-04T07:34:33;101127.69;;;24.16;74.76
9335;BME280;4706;41.844;26.082;2023-06-04T07:36:59;101141.19;;;24.34;74.44
9335;BME280;4706;41.844;26.082;2023-06-04T07:39:24;101124.53;;;24.21;74.50
9335;BME280;4706;41.844;26.082;2023-06-04T07:41:50;101145.97;;;24.33;74.33
9335;BME280;4706;41.844;26.082;2023-06-04T07:44:15;101145.56;;;24.31;74.93
9335;BME280;4706;41.844;26.082;2023-06-04T07:46:41;101138.69;;;24.29;75.32
9335;BME280;4706;41.844;26.082;2023-06-04T07:49:06;101145.91;;;24.30;75.78
9335;BME280;4706;41.844;26.082;2023-06-04T07:51:32;101150.91;;;24.40;76.15
9335;BME280;4706;41.844;26.082;2023-06-04T07:53:57;101147.84;;;24.49;75.45
9335;BME280;4706;41.844;26.082;2023-06-04T07:56:23;101150.34;;;24.57;75.04
9335;BME280;4706;41.844;26.082;2023-06-04T07:58:48;101160.41;;;24.58;74.63
9335;BME280;4706;41.844;26.082;2023-06-04T08:01:14;101149.88;;;24.52;73.67
9335;BME280;4706;41.844;26.082;2023-06-04T08:03:39;101146.59;;;24.46;72.96
9335;BME280;4706;41.844;26.082;2023-06-04T08:06:06;101155.88;;;24.50;71.93
9335;BME280;4706;41.844;26.082;2023-06-04T08:08:32;101160.50;;;24.65;70.31
9335;BME280;4706;41.844;26.082;2023-06-04T08:10:59;101170.22;;;24.71;69.44
9335;BME280;4706;41.844;26.082;2023-06-04T08:13:24;101163.59;;;24.57;69.60
9335;BME280;4706;41.844;26.082;2023-06-04T08:15:50;101174.66;;;24.42;69.79
9335;BME280;4706;41.844;26.082;2023-06-04T08:18:15;101174.41;;;24.55;69.78
9335;BME280;4706;41.844;26.082;2023-06-04T08:20:41;101154.91;;;24.69;68.99
9335;BME280;4706;41.844;26.082;2023-06-04T08:23:06;101171.13;;;24.79;68.56
9335;BME280;4706;41.844;26.082;2023-06-04T08:25:32;101175.94;;;24.82;69.21
9335;BME280;4706;41.844;26.082;2023-06-04T08:27:58;101166.28;;;24.80;69.37
9335;BME280;4706;41.844;26.082;2023-06-04T08:30:24;101172.06;;;24.90;69.44
9335;BME280;4706;41.844;26.082;2023-06-04T08:32:50;101166.44;;;24.90;69.60
9335;BME280;4706;41.844;26.082;2023-06-04T08:35:16;101178.19;;;25.00;67.74
9335;BME280;4706;41.844;26.082;2023-06-04T08:37:42;101164.03;;;24.92;67.28
9335;BME280;4706;41.844;26.082;2023-06-04T08:40:09;101172.72;;;24.80;68.40
9335;BME280;4706;41.844;26.082;2023-06-04T08:42:41;101177.69;;;24.90;68.97
9335;BME280;4706;41.844;26.082;2023-06-04T08:45:10;101175.75;;;24.98;69.10
9335;BME280;4706;41.844;26.082;2023-06-04T08:47:37;101174.47;;;25.26;68.89
9335;BME280;4706;41.844;26.082;2023-06-04T08:50:08;101171.94;;;25.54;66.80
9335;BME280;4706;41.844;26.082;2023-06-04T08:52:35;101172.50;;;25.74;65.55
9335;BME280;4706;41.844;26.082;2023-06-04T08:55:01;101176.56;;;25.77;65.83
9335;BME280;4706;41.844;26.082;2023-06-04T08:57:27;101172.97;;;25.80;64.36
9335;BME280;4706;41.844;26.082;2023-06-04T08:59:55;101165.16;;;25.62;65.35
9335;BME280;4706;41.844;26.082;2023-06-04T09:02:21;101151.72;;;25.45;65.59
9335;BME280;4706;41.844;26.082;2023-06-04T09:04:46;101168.38;;;25.64;65.05
9335;BME280;4706;41.844;26.082;2023-06-04T09:07:13;101156.06;;;25.80;64.19
9335;BME280;4706;41.844;26.082;2023-06-04T09:09:40;101158.00;;;25.76;63.75
9335;BME280;4706;41.844;26.082;2023-06-04T09:12:10;101159.22;;;25.75;63.67
9335;BME280;4706;41.844;26.082;2023-06-04T09:14:37;101154.06;;;25.84;62.48
9335;BME280;4706;41.844;26.082;2023-06-04T09:17:02;101157.41;;;25.97;62.42
9335;BME280;4706;41.844;26.082;2023-06-04T09:19:28;101162.34;;;26.10;63.47
9335;BME280;4706;41.844;26.082;2023-06-04T09:21:55;101157.59;;;26.29;62.72
9335;BME280;4706;41.844;26.082;2023-06-04T09:24:38;101162.47;;;26.35;62.97
9335;BME280;4706;41.844;26.082;2023-06-04T09:27:18;101166.09;;;26.36;62.63
9335;BME280;4706;41.844;26.082;2023-06-04T09:29:54;101152.41;;;26.38;61.87
9335;BME280;4706;41.844;26.082;2023-06-04T09:32:24;101151.69;;;26.48;60.96
9335;BME280;4706;41.844;26.082;2023-06-04T09:34:50;101146.84;;;26.49;61.46
9335;BME280;4706;41.844;26.082;2023-06-04T09:37:16;101152.53;;;26.59;61.19
9335;BME280;4706;41.844;26.082;2023-06-04T09:39:57;101151.06;;;26.98;60.25
9335;BME280;4706;41.844;26.082;2023-06-04T09:42:23;101138.53;;;26.95;58.86
9335;BME280;4706;41.844;26.082;2023-06-04T09:44:49;101150.22;;;26.90;58.90
9335;BME280;4706;41.844;26.082;2023-06-04T09:47:15;101152.56;;;26.70;57.75
9335;BME280;4706;41.844;26.082;2023-06-04T09:49:45;101157.75;;;26.57;58.36
9335;BME280;4706;41.844;26.082;2023-06-04T09:52:12;101165.72;;;26.37;60.53
9335;BME280;4706;41.844;26.082;2023-06-04T09:54:40;101157.13;;;26.20;60.60
9335;BME280;4706;41.844;26.082;2023-06-04T09:57:16;101158.69;;;26.10;61.19
9335;BME280;4706;41.844;26.082;2023-06-04T09:59:48;101158.00;;;25.76;62.86
9335;BME280;4706;41.844;26.082;2023-06-04T10:02:21;101164.84;;;25.75;63.05
9335;BME280;4706;41.844;26.082;2023-06-04T10:04:55;101179.53;;;25.95;61.01
9335;BME280;4706;41.844;26.082;2023-06-04T10:07:25;101179.03;;;25.82;62.37
9335;BME280;4706;41.844;26.082;2023-06-04T10:09:55;101184.22;;;25.80;63.11
9335;BME280;4706;41.844;26.082;2023-06-04T10:12:27;101177.81;;;25.83;63.05
9335;BME280;4706;41.844;26.082;2023-06-04T10:15:11;101173.47;;;25.92;63.59
9335;BME280;4706;41.844;26.082;2023-06-04T10:17:38;101173.97;;;26.05;65.78
9335;BME280;4706;41.844;26.082;2023-06-04T10:20:04;101175.28;;;26.22;67.62
9335;BME280;4706;41.844;26.082;2023-06-04T10:22:31;101171.00;;;26.46;67.51
9335;BME280;4706;41.844;26.082;2023-06-04T10:24:58;101176.72;;;26.60;66.76
9335;BME280;4706;41.844;26.082;2023-06-04T10:27:24;101160.19;;;26.59;65.96
9335;BME280;4706;41.844;26.082;2023-06-04T10:29:50;101174.72;;;26.61;66.03
9335;BME280;4706;41.844;26.082;2023-06-04T10:32:17;101170.25;;;26.53;66.07
9335;BME280;4706;41.844;26.082;2023-06-04T10:34:43;101170.63;;;26.51;66.08
9335;BME280;4706;41.844;26.082;2023-06-04T10:37:25;101174.59;;;26.43;66.53
9335;BME280;4706;41.844;26.082;2023-06-04T10:39:52;101172.19;;;26.45;66.59
9335;BME280;4706;41.844;26.082;2023-06-04T10:42:18;101165.41;;;26.53;66.82
9335;BME280;4706;41.844;26.082;2023-06-04T10:44:46;101165.09;;;26.80;66.75
9335;BME280;4706;41.844;26.082;2023-06-04T10:47:25;101171.34;;;27.43;64.12
9335;BME280;4706;41.844;26.082;2023-06-04T10:49:52;101162.88;;;27.78;62.66
9335;BME280;4706;41.844;26.082;2023-06-04T10:52:18;101156.78;;;28.16;60.27
9335;BME280;4706;41.844;26.082;2023-06-04T10:54:45;101153.47;;;28.35;59.55
9335;BME280;4706;41.844;26.082;2023-06-04T10:57:18;101149.03;;;28.34;59.50
9335;BME280;4706;41.844;26.082;2023-06-04T10:59:56;101138.53;;;28.45;58.86
9335;BME280;4706;41.844;26.082;2023-06-04T11:02:22;101145.63;;;28.89;57.92
9335;BME280;4706;41.844;26.082;2023-06-04T11:04:58;101149.09;;;29.18;55.58
9335;BME280;4706;41.844;26.082;2023-06-04T11:07:27;101135.16;;;29.45;54.63
9335;BME280;4706;41.844;26.082;2023-06-04T11:09:52;101131.41;;;29.59;54.37
9335;BME280;4706;41.844;26.082;2023-06-04T11:12:18;101124.03;;;29.69;54.38
9335;BME280;4706;41.844;26.082;2023-06-04T11:14:56;101131.47;;;29.93;53.64
9335;BME280;4706;41.844;26.082;2023-06-04T11:17:22;101136.06;;;30.21;53.48
9335;BME280;4706;41.844;26.082;2023-06-04T11:19:48;101130.91;;;30.47;52.70
9335;BME280;4706;41.844;26.082;2023-06-04T11:22:14;101127.19;;;30.50;52.32
9335;BME280;4706;41.844;26.082;2023-06-04T11:24:40;101129.28;;;30.46;52.12
9335;BME280;4706;41.844;26.082;2023-06-04T11:27:06;101125.84;;;30.28;53.84
9335;BME280;4706;41.844;26.082;2023-06-04T11:29:32;101129.03;;;29.95;53.87
9335;BME280;4706;41.844;26.082;2023-06-04T11:31:58;101131.00;;;29.57;56.13
9335;BME280;4706;41.844;26.082;2023-06-04T11:34:24;101134.03;;;29.28;55.98
9335;BME280;4706;41.844;26.082;2023-06-04T11:36:50;101127.78;;;28.92;57.34
9335;BME280;4706;41.844;26.082;2023-06-04T11:39:19;101125.81;;;28.86;58.05
9335;BME280;4706;41.844;26.082;2023-06-04T11:41:45;101115.16;;;29.11;58.47
9335;BME280;4706;41.844;26.082;2023-06-04T11:44:12;101115.69;;;29.44;57.09
9335;BME280;4706;41.844;26.082;2023-06-04T11:46:42;101113.53;;;29.66;56.56
9335;BME280;4706;41.844;26.082;2023-06-04T11:49:12;101107.72;;;29.80;55.39
9335;BME280;4706;41.844;26.082;2023-06-04T11:51:46;101106.09;;;29.83;53.97
9335;BME280;4706;41.844;26.082;2023-06-04T11:54:12;101105.47;;;29.61;53.77
9335;BME280;4706;41.844;26.082;2023-06-04T11:56:38;101104.19;;;29.69;55.07
9335;BME280;4706;41.844;26.082;2023-06-04T11:59:04;101118.34;;;29.69;54.30
9335;BME280;4706;41.844;26.082;2023-06-04T12:01:31;101114.75;;;29.65;53.73
9335;BME280;4706;41.844;26.082;2023-06-04T12:03:58;101112.25;;;29.18;55.68
9335;BME280;4706;41.844;26.082;2023-06-04T12:06:23;101114.06;;;28.87;56.84
9335;BME280;4706;41.844;26.082;2023-06-04T12:08:54;101112.94;;;28.70;58.11
9335;BME280;4706;41.844;26.082;2023-06-04T12:11:26;101119.47;;;28.56;58.56
9335;BME280;4706;41.844;26.082;2023-06-04T12:13:56;101120.28;;;28.61;58.09
9335;BME280;4706;41.844;26.082;2023-06-04T12:16:22;101125.13;;;28.60;58.23
9335;BME280;4706;41.844;26.082;2023-06-04T12:18:47;101125.16;;;28.53;58.23
9335;BME280;4706;41.844;26.082;2023-06-04T12:21:21;101124.41;;;28.38;58.20
9335;BME280;4706;41.844;26.082;2023-06-04T12:23:48;101115.50;;;28.36;58.91
9335;BME280;4706;41.844;26.082;2023-06-04T12:26:23;101119.97;;;28.26;58.94
9335;BME280;4706;41.844;26.082;2023-06-04T12:28:59;101113.91;;;28.21;59.13
9335;BME280;4706;41.844;26.082;2023-06-04T12:31:25;101111.03;;;28.35;59.22
9335;BME280;4706;41.844;26.082;2023-06-04T12:33:58;101110.59;;;28.54;59.43
9335;BME280;4706;41.844;26.082;2023-06-04T12:36:24;101113.75;;;28.74;58.63
9335;BME280;4706;41.844;26.082;2023-06-04T12:38:49;101106.41;;;28.80;58.21
9335;BME280;4706;41.844;26.082;2023-06-04T12:41:15;101107.53;;;28.97;57.49
9335;BME280;4706;41.844;26.082;2023-06-04T12:43:41;101117.53;;;29.16;56.65
9335;BME280;4706;41.844;26.082;2023-06-04T12:46:06;101118.81;;;29.08;56.58
9335;BME280;4706;41.844;26.082;2023-06-04T12:48:32;101127.78;;;28.92;57.25
9335;BME280;4706;41.844;26.082;2023-06-04T12:50:58;101118.63;;;28.70;58.20
9335;BME280;4706;41.844;26.082;2023-06-04T12:53:24;101113.44;;;28.51;58.90
9335;BME280;4706;41.844;26.082;2023-06-04T12:55:50;101115.94;;;28.24;60.04
9335;BME280;4706;41.844;26.082;2023-06-04T12:58:16;101117.22;;;27.91;61.74
9335;BME280;4706;41.844;26.082;2023-06-04T13:00:42;101107.53;;;27.99;61.70
9335;BME280;4706;41.844;26.082;2023-06-04T13:03:08;101109.59;;;27.80;61.44